Big Bear Station Historical Data
Daily Summary for March 19, 2017 Units:  English    Metric   Both
« Previous Day
Next Day »
Daily Weekly Monthly Yearly Custom
  High: Low: Average:
Temperature: 65.1 °F 38.1 °F 51.8 °F
Dew Point: 37.1 °F 17.4 °F 31.2 °F
Humidity: 68 % 31 % 47 %
Wind Speed: 13.0 mph 0.0 mph 2.3 mph
Wind Gust: -999.0 mph - -
Wind:- - South
Pressure: 30.33 in 30.25 in -
Precipitation: 0.00 in    
Historical Graphs
 
 
Tabular Data for March 19, 2017
Time Temperature Dew Point Pressure Wind Wind Speed Wind Gust Humidity Rainfall Rate (Hourly)
00:02 41.0 °F 27.8 °F 30.29 in South 2.2 mph -999.0 mph 59 % 0 in
00:17 40.5 °F 27.7 °F 30.29 in SE 1.1 mph -999.0 mph 60 % 0 in
00:32 39.9 °F 27.1 °F 30.28 in South 2.7 mph -999.0 mph 60 % 0 in
00:48 39.4 °F 25.4 °F 30.28 in South 1.7 mph -999.0 mph 57 % 0 in
01:03 38.8 °F 24.9 °F 30.28 in South 2.2 mph -999.0 mph 57 % 0 in
01:18 38.3 °F 24.0 °F 30.28 in Calm   -999.0 mph 56 % 0 in
01:33 38.1 °F 23.4 °F 30.27 in Calm   -999.0 mph 55 % 0 in
02:04 38.1 °F 26.2 °F 30.27 in Calm   -999.0 mph 62 % 0 in
02:19 38.1 °F 25.8 °F 30.26 in Calm   -999.0 mph 61 % 0 in
02:34 39.2 °F 24.8 °F 30.25 in SW 1.1 mph -999.0 mph 56 % 0 in
02:49 41.0 °F 20.7 °F 30.25 in SW 1.1 mph -999.0 mph 44 % 0 in
03:05 43.5 °F 17.6 °F 30.25 in ENE 1.7 mph -999.0 mph 35 % 0 in
03:20 46.4 °F 17.4 °F 30.25 in WSW 2.7 mph -999.0 mph 31 % 0 in
03:35 46.8 °F 19.9 °F 30.25 in South 3.2 mph -999.0 mph 34 % 0 in
03:50 47.8 °F 20.1 °F 30.25 in WNW 3.7 mph -999.0 mph 33 % 0 in
04:06 48.7 °F 20.1 °F 30.25 in West 1.7 mph -999.0 mph 32 % 0 in
04:21 48.7 °F 21.6 °F 30.26 in SSW 1.7 mph -999.0 mph 34 % 0 in
04:36 48.0 °F 23.6 °F 30.26 in ESE 1.7 mph -999.0 mph 38 % 0 in
04:51 47.8 °F 24.6 °F 30.26 in SW 2.7 mph -999.0 mph 40 % 0 in
05:06 48.6 °F 26.5 °F 30.26 in SSE 3.7 mph -999.0 mph 42 % 0 in
05:22 49.1 °F 27.6 °F 30.27 in SSE 2.2 mph -999.0 mph 43 % 0 in
05:37 49.1 °F 28.1 °F 30.27 in SSW 1.7 mph -999.0 mph 44 % 0 in
05:52 49.3 °F 29.4 °F 30.27 in South 1.7 mph -999.0 mph 46 % 0 in
06:07 48.2 °F 29.4 °F 30.28 in South 2.2 mph -999.0 mph 48 % 0 in
06:22 48.0 °F 30.2 °F 30.28 in South 2.2 mph -999.0 mph 50 % 0 in
06:38 47.3 °F 30.1 °F 30.29 in Calm   -999.0 mph 51 % 0 in
06:53 47.1 °F 30.4 °F 30.29 in South 1.1 mph -999.0 mph 52 % 0 in
07:08 46.6 °F 29.9 °F 30.30 in SSW 1.1 mph -999.0 mph 52 % 0 in
07:23 47.1 °F 30.4 °F 30.30 in SW 1.7 mph -999.0 mph 52 % 0 in
07:39 47.3 °F 31.0 °F 30.30 in SSE 2.7 mph -999.0 mph 53 % 0 in
07:54 48.0 °F 31.7 °F 30.30 in Calm   -999.0 mph 53 % 0 in
08:09 50.4 °F 32.5 °F 30.31 in SSW 1.1 mph -999.0 mph 50 % 0 in
08:25 52.9 °F 33.2 °F 30.31 in South 2.2 mph -999.0 mph 47 % 0 in
08:40 53.4 °F 32.6 °F 30.31 in SSW 2.7 mph -999.0 mph 45 % 0 in
08:55 54.0 °F 32.0 °F 30.31 in SW 2.2 mph -999.0 mph 43 % 0 in
09:10 55.2 °F 29.4 °F 30.31 in South 2.7 mph -999.0 mph 37 % 0 in
09:26 55.2 °F 30.0 °F 30.32 in SSW 4.7 mph -999.0 mph 38 % 0 in
09:41 55.9 °F 31.3 °F 30.32 in South 2.2 mph -999.0 mph 39 % 0 in
09:56 56.7 °F 31.4 °F 30.32 in ENE 1.7 mph -999.0 mph 38 % 0 in
10:11 57.0 °F 32.9 °F 30.32 in SSE 2.7 mph -999.0 mph 40 % 0 in
10:26 57.4 °F 32.6 °F 30.32 in SW 1.1 mph -999.0 mph 39 % 0 in
10:42 58.3 °F 34.1 °F 30.32 in SE 4.7 mph -999.0 mph 40 % 0 in
10:57 60.6 °F 36.1 °F 30.32 in SSW 3.2 mph -999.0 mph 40 % 0 in
11:12 61.7 °F 36.5 °F 30.32 in South 6.8 mph -999.0 mph 39 % 0 in
11:27 62.4 °F 37.1 °F 30.32 in NE 2.7 mph -999.0 mph 39 % 0 in
11:42 63.0 °F 37.0 °F 30.33 in WNW 2.7 mph -999.0 mph 38 % 0 in
11:58 63.5 °F 36.1 °F 30.33 in SE 2.7 mph -999.0 mph 36 % 0 in
12:13 63.0 °F 34.9 °F 30.32 in NNE 2.7 mph -999.0 mph 35 % 0 in
12:28 64.4 °F 35.4 °F 30.32 in WNW 2.7 mph -999.0 mph 34 % 0 in
12:43 64.9 °F 35.1 °F 30.32 in NW 3.7 mph -999.0 mph 33 % 0 in
12:58 65.1 °F 35.3 °F 30.32 in SW 3.2 mph -999.0 mph 33 % 0 in
13:14 65.1 °F 36.0 °F 30.32 in Calm   -999.0 mph 34 % 0 in
13:29 63.7 °F 35.5 °F 30.31 in ENE 2.7 mph -999.0 mph 35 % 0 in
13:44 64.6 °F 34.8 °F 30.30 in WSW 2.2 mph -999.0 mph 33 % 0 in
14:00 64.2 °F 35.2 °F 30.30 in WNW 4.7 mph -999.0 mph 34 % 0 in
14:15 63.1 °F 35.0 °F 30.30 in SSE 5.8 mph -999.0 mph 35 % 0 in
14:30 63.9 °F 35.0 °F 30.29 in SSE 3.2 mph -999.0 mph 34 % 0 in
14:46 63.3 °F 35.2 °F 30.29 in South 5.8 mph -999.0 mph 35 % 0 in
15:01 62.2 °F 34.2 °F 30.29 in SSW 4.2 mph -999.0 mph 35 % 0 in
15:17 62.6 °F 34.6 °F 30.29 in South 4.7 mph -999.0 mph 35 % 0 in
15:32 62.1 °F 34.1 °F 30.28 in South 6.8 mph -999.0 mph 35 % 0 in
15:47 61.2 °F 34.0 °F 30.27 in SSE 4.2 mph -999.0 mph 36 % 0 in
16:02 61.2 °F 34.0 °F 30.27 in South 10.4 mph -999.0 mph 36 % 0 in
16:17 59.7 °F 33.4 °F 30.27 in SSE 3.7 mph -999.0 mph 37 % 0 in
16:33 60.1 °F 33.7 °F 30.27 in SSE 13.0 mph -999.0 mph 37 % 0 in
16:48 59.2 °F 33.6 °F 30.27 in SW 3.2 mph -999.0 mph 38 % 0 in
17:03 58.3 °F 33.4 °F 30.27 in ESE 2.2 mph -999.0 mph 39 % 0 in
17:19 58.5 °F 33.6 °F 30.26 in South 4.2 mph -999.0 mph 39 % 0 in
17:34 58.1 °F 33.3 °F 30.26 in NNW 4.7 mph -999.0 mph 39 % 0 in
17:49 57.0 °F 33.5 °F 30.26 in South 4.2 mph -999.0 mph 41 % 0 in
18:05 55.8 °F 33.6 °F 30.26 in Calm   -999.0 mph 43 % 0 in
18:20 54.9 °F 33.9 °F 30.26 in Calm   -999.0 mph 45 % 0 in
18:35 53.6 °F 33.9 °F 30.26 in Calm   -999.0 mph 47 % 0 in
18:50 52.3 °F 34.7 °F 30.26 in Calm   -999.0 mph 51 % 0 in
19:05 50.7 °F 34.2 °F 30.27 in SSE 1.1 mph -999.0 mph 53 % 0 in
19:21 49.5 °F 34.0 °F 30.27 in Calm   -999.0 mph 55 % 0 in
19:36 47.8 °F 34.6 °F 30.27 in Calm   -999.0 mph 60 % 0 in
19:51 46.9 °F 35.0 °F 30.27 in South 1.7 mph -999.0 mph 63 % 0 in
20:22 45.7 °F 34.6 °F 30.26 in SSE 1.7 mph -999.0 mph 65 % 0 in
20:37 45.0 °F 34.7 °F 30.27 in Calm   -999.0 mph 67 % 0 in
20:52 44.6 °F 34.3 °F 30.26 in ESE 1.7 mph -999.0 mph 67 % 0 in
21:07 44.2 °F 34.3 °F 30.26 in Calm   -999.0 mph 68 % 0 in
21:22 44.8 °F 34.1 °F 30.26 in Calm   -999.0 mph 66 % 0 in
21:38 45.7 °F 33.0 °F 30.27 in Calm   -999.0 mph 61 % 0 in
21:53 45.7 °F 33.4 °F 30.26 in Calm   -999.0 mph 62 % 0 in
22:08 45.5 °F 33.2 °F 30.26 in Calm   -999.0 mph 62 % 0 in
22:24 45.3 °F 32.6 °F 30.26 in Calm   -999.0 mph 61 % 0 in
22:39 45.5 °F 32.4 °F 30.26 in SSW 1.7 mph -999.0 mph 60 % 0 in
22:54 45.1 °F 32.9 °F 30.26 in WSW 1.1 mph -999.0 mph 62 % 0 in
23:09 45.1 °F 32.5 °F 30.26 in Calm   -999.0 mph 61 % 0 in
23:24 45.0 °F 32.4 °F 30.26 in South 2.2 mph -999.0 mph 61 % 0 in
23:40 44.8 °F 32.2 °F 30.26 in South 1.7 mph -999.0 mph 61 % 0 in
23:55 44.1 °F 31.5 °F 30.25 in Calm   -999.0 mph 61 % 0 in
Big Bear CA Weather
Compliments of Weather Underground - 1.5 mb